Calistoga, CA

6:52 AM PDT on September 23, 2014 (GMT -0700)
Calistoga | Change Station
CLOSE
Current Station
Personal Weather Station
Location: Calistoga, CA
Elevation: 367 ft
Nearby Weather Stations

Elev 367 ft 38.59 °N, 122.58 °W | Updated 54 seconds ago

Partly Cloudy
Partly Cloudy
51.2 °F
Feels Like 51.2 °F
N
0.0
Wind Variable Wind from WNW
Gusts 0.0 mph

Today
High -- | Low -- °F
--% Chance of Precip.
Yesterday
High -- | Low -- °F
Precip. -- in
6:58 AM 7:05 PM
Waning Crescent, 0% visible
Pressure 29.97 in
Visibility 0.2 miles
Clouds
Dew Point 49 °F
Humidity 92%
Rainfall 0.00 in
Snow Depth 1 in , 1 in , 0 in
UV Not available.
Pollen 5.30 out of 12
Air Quality Not available.
Flu Activity Not available.
SPECI KSTS 231330Z 00000KT 1/4SM FG VV002 09/09 A2997 RMK AO2

More Conditions Fewer Conditions

Pressure 29.97 in
Visibility 0.2 miles
Clouds
Dew Point 49 °F
Humidity 92%
Rainfall 0.00 in
Snow Depth 1 in , 1 in , 0 in
UV Not available.
Pollen 5.30 out of 12
Air Quality Not available.
Flu Activity Not available.
SPECI KSTS 231330Z 00000KT 1/4SM FG VV002 09/09 A2997 RMK AO2

More Conditions Fewer Conditions

10-Day Weather Forecast

Almanac

Astronomy

Sep. 23, 2014 Rise Set
Actual Time 6:58 AM PDT 7:05 PM PDT
Civil Twilight 6:32 AM PDT 7:31 PM PDT
Nautical Twilight 6:01 AM PDT 8:02 PM PDT
Astronomical Twilight 5:30 AM PDT 8:34 PM PDT
Moon 6:28 AM PDT 6:47 PM PDT
Length of Visible Light 12h 59m
Length of Day
12h 06m
Tomorrow will be 2m 29s shorter.
Waning Crescent, 0% of the Moon is Illuminated
Today
Waning Crescent
Sep 24
New
Oct 1
First Quarter
Oct 8
Full
Oct 15
Last Quarter

Today's Extremes

State Highs State Lows

Community

WunderPhotos

Upload Photos

1,755,669 photos uploaded!

WunderBlogs® & News

Nearby

Air Quality

  Air Quality AQ Index Pollutant
Tuesday Good
PM2.5
Wednesday Good
PM2.5
Thursday Good
OZONE
Friday Good
OZONE
Saturday Good
OZONE

Snow Depth

Station Depth Elevation
Spratt Creek 1 in 6200 ft
Burnside Lake 1 in 8139 ft
Forestdale Creek 0 in 8029 ft
Heavenly Valley 0 in 8850 ft
Fallen Leaf 0 in 6300 ft

Earthquake Activity

City Distance Mag. Time & Date
Yountville, California 19 miles 2.6 1:17 PM PDT
2014-09-21
Minimum magnitude displayed is 2.5.

Coastal Water Temperatures

Place Temperature
No Stations Reporting

Nearby Weather Stations